Time;durP1;ratioP1;P1;durP2;ratioP2;P2;SDS_P1;SDS_P2;PMS_P1;PMS_P2;Temp;Humidity;BMP_temperature;BMP_pressure;BME280_temperature;BME280_humidity;BME280_pressure;Samples;Min_cycle;Max_cycle;Signal;HPM_P1;HPM_P2
2021/11/15 00:00:27;;;;;;;11.50;11.10;;;20.00;79.80;;;;;;5052674;28;20460;-53
2021/11/15 00:02:56;;;;;;;11.70;11.40;;;19.90;79.80;;;;;;5041207;28;20843;-55
2021/11/15 00:05:23;;;;;;;11.70;11.40;;;19.90;80.00;;;;;;5032830;28;20449;-49
2021/11/15 00:07:50;;;;;;;11.57;11.27;;;19.90;80.10;;;;;;5032932;28;20853;-53
2021/11/15 00:10:17;;;;;;;12.30;11.80;;;19.90;80.20;;;;;;5032428;28;20476;-54
2021/11/15 00:12:44;;;;;;;12.33;11.93;;;19.90;80.40;;;;;;5032788;28;20452;-51
2021/11/15 00:15:11;;;;;;;12.20;11.80;;;19.80;80.60;;;;;;5032647;28;20445;-53
2021/11/15 00:17:38;;;;;;;12.37;11.97;;;19.80;80.90;;;;;;5032563;28;20811;-54
2021/11/15 00:20:08;;;;;;;11.33;10.93;;;19.80;81.20;;;;;;5032320;28;20473;-49
2021/11/15 00:22:35;;;;;;;11.37;11.07;;;19.80;81.40;;;;;;5032552;28;20449;-48
2021/11/15 00:25:02;;;;;;;11.80;11.50;;;19.80;81.60;;;;;;5032396;28;20436;-52
2021/11/15 00:27:29;;;;;;;11.53;11.23;;;19.70;81.80;;;;;;5049925;28;20440;-51
2021/11/15 00:29:58;;;;;;;11.50;11.20;;;19.70;82.00;;;;;;5052044;28;21051;-49
2021/11/15 00:32:25;;;;;;;11.90;11.50;;;19.70;82.20;;;;;;5052383;28;20514;-60
2021/11/15 00:34:52;;;;;;;12.03;11.67;;;19.70;82.30;;;;;;5052294;28;20448;-51
2021/11/15 00:37:20;;;;;;;11.93;11.63;;;19.60;82.40;;;;;;5049746;28;20813;-55
2021/11/15 00:39:47;;;;;;;12.30;12.00;;;19.70;82.70;;;;;;5036086;28;20588;-49
2021/11/15 00:42:14;;;;;;;11.93;11.53;;;19.70;82.80;;;;;;5052052;28;20468;-51
2021/11/15 00:44:41;;;;;;;11.57;11.17;;;19.60;82.90;;;;;;5052095;28;20817;-52
2021/11/15 00:47:08;;;;;;;11.40;11.10;;;19.60;83.10;;;;;;5052113;28;20448;-50
2021/11/15 00:49:35;;;;;;;12.13;11.63;;;19.60;83.40;;;;;;5049796;28;20468;-49
2021/11/15 00:52:02;;;;;;;12.20;11.90;;;19.60;83.40;;;;;;5031997;28;20441;-49
2021/11/15 00:54:31;;;;;;;11.80;11.50;;;19.60;83.60;;;;;;5032080;28;20449;-51
2021/11/15 00:56:58;;;;;;;12.47;12.07;;;19.50;83.60;;;;;;5031903;28;20456;-50
2021/11/15 00:59:26;;;;;;;12.50;12.10;;;19.50;83.70;;;;;;5031599;28;20488;-51
2021/11/15 01:01:53;;;;;;;13.00;12.50;;;19.50;83.80;;;;;;5037100;28;20454;-50
2021/11/15 01:04:20;;;;;;;12.80;12.30;;;19.50;83.90;;;;;;5051764;28;20812;-50
2021/11/15 01:06:46;;;;;;;12.40;12.00;;;19.50;84.10;;;;;;5051786;28;20455;-50
2021/11/15 01:09:13;;;;;;;11.90;11.60;;;19.50;84.30;;;;;;5051413;28;20475;-50
2021/11/15 01:11:41;;;;;;;13.00;12.50;;;19.40;84.60;;;;;;5051588;28;20956;-49
2021/11/15 01:14:08;;;;;;;12.30;11.90;;;19.40;84.60;;;;;;5046749;28;20444;-50
2021/11/15 01:16:35;;;;;;;11.53;11.23;;;19.40;84.30;;;;;;5031692;28;20449;-53
2021/11/15 01:19:01;;;;;;;13.00;12.60;;;19.40;84.50;;;;;;5031353;28;20484;-55
2021/11/15 01:21:29;;;;;;;13.03;12.60;;;19.40;84.70;;;;;;5031783;28;20449;-54
2021/11/15 01:23:57;;;;;;;12.10;11.70;;;19.40;84.80;;;;;;5031702;28;20952;-55
2021/11/15 01:26:24;;;;;;;11.87;11.47;;;19.30;84.90;;;;;;5039775;28;20448;-53
2021/11/15 01:28:53;;;;;;;12.73;12.33;;;19.30;85.20;;;;;;5051236;28;20460;-50
2021/11/15 01:31:20;;;;;;;12.13;11.73;;;19.30;85.30;;;;;;5051406;28;20448;-54
2021/11/15 01:33:47;;;;;;;11.80;11.50;;;19.30;85.50;;;;;;5051461;28;20815;-56
2021/11/15 01:36:14;;;;;;;12.37;11.97;;;19.30;85.50;;;;;;5051438;28;20451;-56
2021/11/15 01:38:41;;;;;;;12.77;12.37;;;19.30;85.70;;;;;;5048236;28;20855;-54
2021/11/15 01:41:08;;;;;;;12.47;12.07;;;19.30;86.00;;;;;;5051368;28;20448;-52
2021/11/15 01:43:36;;;;;;;12.50;12.10;;;19.30;86.20;;;;;;5051353;28;20447;-50
2021/11/15 01:46:04;;;;;;;11.93;11.50;;;19.30;86.40;;;;;;5051541;28;20455;-54
2021/11/15 01:48:31;;;;;;;12.30;11.87;;;19.30;86.80;;;;;;5051294;28;20460;-49
2021/11/15 01:50:58;;;;;;;12.30;11.93;;;19.30;86.80;;;;;;5034995;28;20449;-50
2021/11/15 01:53:27;;;;;;;12.80;12.40;;;19.30;87.00;;;;;;5031343;28;20791;-53
2021/11/15 01:55:53;;;;;;;12.10;11.70;;;19.30;87.00;;;;;;5032263;28;20445;-56
2021/11/15 01:58:20;;;;;;;11.67;11.37;;;19.20;87.00;;;;;;5035089;28;20452;-51
2021/11/15 02:00:49;;;;;;;12.00;11.60;;;19.30;87.20;;;;;;5035038;28;20493;-55
2021/11/15 02:03:19;;;;;;;12.10;11.70;;;19.30;87.40;;;;;;5035574;28;20445;-49
2021/11/15 02:05:47;;;;;;;11.53;11.13;;;19.20;87.60;;;;;;5035286;28;20448;-52
2021/11/15 02:08:15;;;;;;;11.90;11.60;;;19.20;87.60;;;;;;5034838;28;20960;-53
2021/11/15 02:10:42;;;;;;;12.00;11.70;;;19.20;87.60;;;;;;5035016;28;20449;-51
2021/11/15 02:13:09;;;;;;;11.60;11.30;;;19.20;87.70;;;;;;5035058;28;20445;-50
2021/11/15 02:15:35;;;;;;;11.57;11.27;;;19.20;87.70;;;;;;5050955;28;20444;-54
2021/11/15 02:18:03;;;;;;;12.00;11.70;;;19.20;87.70;;;;;;5054881;28;20984;-52
2021/11/15 02:20:45;;;;;;;12.13;11.83;;;19.20;88.00;;;;;;5054530;28;20492;-52
2021/11/15 02:23:12;;;;;;;11.80;11.40;;;19.10;88.00;;;;;;5054749;28;20486;-53
2021/11/15 02:25:39;;;;;;;12.17;11.77;;;19.10;88.30;;;;;;5053938;28;20444;-48
2021/11/15 02:28:06;;;;;;;12.33;11.93;;;19.10;88.70;;;;;;5054676;28;20483;-51
2021/11/15 02:30:33;;;;;;;12.20;11.80;;;19.20;89.00;;;;;;5054406;28;20464;-51
2021/11/15 02:33:01;;;;;;;11.87;11.50;;;19.10;89.00;;;;;;5054519;28;20456;-50
2021/11/15 02:35:28;;;;;;;11.57;11.27;;;19.10;89.50;;;;;;5054642;28;20539;-49
2021/11/15 02:37:56;;;;;;;11.50;11.20;;;19.10;89.50;;;;;;5051156;28;21090;-47
2021/11/15 02:40:26;;;;;;;12.10;11.70;;;19.10;89.60;;;;;;5035218;28;20492;-52
2021/11/15 02:42:54;;;;;;;12.13;11.73;;;19.10;89.90;;;;;;5034566;28;20448;-49
2021/11/15 02:45:22;;;;;;;11.77;11.20;;;19.10;90.00;;;;;;5034505;28;20949;-51
2021/11/15 02:47:49;;;;;;;11.80;11.50;;;19.10;90.00;;;;;;5034387;28;20926;-53
2021/11/15 02:50:19;;;;;;;12.10;11.70;;;19.00;90.00;;;;;;5037288;28;20456;-48
2021/11/15 02:52:50;;;;;;;12.50;12.10;;;19.00;90.10;;;;;;5053989;28;20451;-53
2021/11/15 02:55:19;;;;;;;12.57;12.17;;;19.00;90.20;;;;;;5054212;28;20462;-49
2021/11/15 02:57:45;;;;;;;11.53;11.20;;;19.00;90.30;;;;;;5054117;28;20502;-50
2021/11/15 03:00:25;;;;;;;11.80;11.40;;;19.00;90.40;;;;;;5053831;28;20491;-51
2021/11/15 03:02:53;;;;;;;12.13;11.73;;;19.10;90.60;;;;;;5052158;28;20459;-50
2021/11/15 03:05:24;;;;;;;12.53;12.13;;;19.10;90.60;;;;;;5053667;28;20463;-49
2021/11/15 03:07:51;;;;;;;11.87;11.47;;;19.00;90.60;;;;;;5052671;28;20945;-56
2021/11/15 03:10:20;;;;;;;12.07;11.67;;;19.00;90.80;;;;;;5053601;28;20474;-52
2021/11/15 03:12:47;;;;;;;12.50;12.10;;;19.10;91.00;;;;;;5053805;28;20443;-56
2021/11/15 03:15:22;;;;;;;11.67;11.37;;;19.00;91.10;;;;;;5042008;28;20873;-53
2021/11/15 03:17:55;;;;;;;12.80;12.40;;;19.00;91.10;;;;;;5034009;28;20445;-55
2021/11/15 03:20:22;;;;;;;12.00;11.60;;;19.00;91.20;;;;;;5033857;28;20845;-55
2021/11/15 03:22:48;;;;;;;11.70;11.40;;;19.00;91.20;;;;;;5033686;28;20812;-55
2021/11/15 03:25:15;;;;;;;12.20;11.80;;;19.00;91.30;;;;;;5033810;28;20448;-53
2021/11/15 03:27:44;;;;;;;12.83;12.43;;;19.00;91.20;;;;;;5049025;28;20453;-51
2021/11/15 03:30:12;;;;;;;12.60;12.20;;;19.00;91.30;;;;;;5053256;28;20467;-54
2021/11/15 03:32:43;;;;;;;12.30;11.90;;;19.00;91.40;;;;;;5053426;28;20831;-51
2021/11/15 03:35:11;;;;;;;12.50;12.10;;;18.90;91.60;;;;;;5053565;28;20820;-55
2021/11/15 03:37:39;;;;;;;12.23;11.83;;;18.90;91.60;;;;;;5053313;28;20483;-52
2021/11/15 03:40:09;;;;;;;12.23;11.87;;;18.90;91.80;;;;;;5052663;28;20491;-49
2021/11/15 03:42:37;;;;;;;12.43;12.03;;;18.90;92.00;;;;;;5053225;28;20448;-50
2021/11/15 03:45:06;;;;;;;12.10;11.80;;;18.90;92.30;;;;;;5053320;28;20444;-48
2021/11/15 03:47:33;;;;;;;12.50;12.10;;;18.90;92.40;;;;;;5052925;28;20452;-51
2021/11/15 03:50:00;;;;;;;12.40;12.00;;;19.00;92.40;;;;;;5052138;28;20464;-50
2021/11/15 03:52:27;;;;;;;12.50;12.10;;;19.00;92.40;;;;;;5053103;28;20452;-51
2021/11/15 03:54:54;;;;;;;12.33;11.97;;;19.00;92.70;;;;;;5053215;28;20448;-50
2021/11/15 03:57:22;;;;;;;12.70;12.30;;;19.00;92.90;;;;;;5053002;28;20448;-55
2021/11/15 03:59:48;;;;;;;12.47;12.07;;;19.00;93.20;;;;;;5052218;28;21012;-51
2021/11/15 04:02:18;;;;;;;12.33;11.93;;;19.00;93.40;;;;;;5052912;28;20456;-48
2021/11/15 04:04:51;;;;;;;13.27;12.77;;;19.00;93.50;;;;;;5052833;28;20786;-54
2021/11/15 04:07:27;;;;;;;12.67;12.27;;;19.00;93.70;;;;;;5052990;28;20440;-51
2021/11/15 04:09:55;;;;;;;13.00;12.50;;;19.00;94.10;;;;;;5052444;28;20529;-51
2021/11/15 04:12:23;;;;;;;13.47;12.97;;;19.00;93.90;;;;;;5041128;28;20821;-49
2021/11/15 04:14:50;;;;;;;12.67;12.27;;;18.90;94.00;;;;;;5032786;28;20859;-50
2021/11/15 04:17:19;;;;;;;12.33;11.93;;;19.00;94.10;;;;;;5032831;28;20449;-49
2021/11/15 04:19:47;;;;;;;12.50;12.20;;;19.00;94.10;;;;;;5031844;28;20480;-49
2021/11/15 04:22:14;;;;;;;14.27;13.77;;;19.00;94.30;;;;;;5032532;28;20965;-50
2021/11/15 04:24:41;;;;;;;12.47;12.17;;;18.90;94.40;;;;;;5044919;28;20945;-51
2021/11/15 04:27:08;;;;;;;12.80;12.40;;;19.00;94.40;;;;;;5052452;28;20451;-52
2021/11/15 04:29:36;;;;;;;12.00;11.70;;;18.90;94.40;;;;;;5038333;28;20490;-49
2021/11/15 04:32:04;;;;;;;11.90;11.60;;;18.90;94.60;;;;;;5032548;28;20504;-48
2021/11/15 04:34:33;;;;;;;12.57;12.17;;;18.90;94.80;;;;;;5032541;28;20449;-49
2021/11/15 04:37:01;;;;;;;12.00;11.70;;;18.90;94.90;;;;;;5046759;28;20498;-48
2021/11/15 04:39:28;;;;;;;12.10;11.80;;;18.90;94.70;;;;;;5051900;28;20484;-48
2021/11/15 04:41:55;;;;;;;12.23;11.83;;;19.00;94.80;;;;;;5052264;28;20781;-51
2021/11/15 04:44:22;;;;;;;12.43;12.03;;;18.90;94.90;;;;;;5052196;28;20451;-51
2021/11/15 04:46:49;;;;;;;12.70;12.20;;;19.00;94.80;;;;;;5052069;28;20476;-49
2021/11/15 04:49:16;;;;;;;12.20;11.90;;;19.00;94.70;;;;;;5037357;28;20480;-53
2021/11/15 04:51:44;;;;;;;12.23;11.93;;;19.00;94.90;;;;;;5032250;28;20480;-50
2021/11/15 04:54:11;;;;;;;12.20;11.80;;;18.90;95.00;;;;;;5032099;28;20448;-48
2021/11/15 04:56:38;;;;;;;12.00;11.70;;;19.00;95.00;;;;;;5032048;28;20477;-49
2021/11/15 04:59:06;;;;;;;12.47;12.07;;;19.00;95.00;;;;;;5031642;28;20465;-55
2021/11/15 05:01:33;;;;;;;12.17;11.77;;;19.00;95.10;;;;;;5045702;28;20452;-56
2021/11/15 05:04:00;;;;;;;12.17;11.87;;;18.90;95.10;;;;;;5051783;28;20444;-55
2021/11/15 05:06:27;;;;;;;13.37;12.97;;;18.90;95.30;;;;;;5051698;28;20448;-52
2021/11/15 05:08:55;;;;;;;12.83;12.33;;;18.90;95.30;;;;;;5076455;22;20508;-60
2021/11/15 05:11:21;;;;;;;12.20;11.80;;;19.00;95.20;;;;;;5063411;28;20439;-58
2021/11/15 05:13:48;;;;;;;12.80;12.40;;;19.00;95.20;;;;;;5069955;28;20450;-56
2021/11/15 05:16:15;;;;;;;13.10;12.67;;;19.00;95.20;;;;;;5071555;28;20443;-52
2021/11/15 05:18:42;;;;;;;12.90;12.50;;;19.00;95.30;;;;;;5071433;28;20439;-56
2021/11/15 05:21:09;;;;;;;11.70;11.40;;;19.00;95.30;;;;;;5071454;28;20483;-58
2021/11/15 05:23:37;;;;;;;13.07;12.67;;;19.00;95.30;;;;;;5071619;28;20451;-57
2021/11/15 05:26:05;;;;;;;13.03;12.63;;;19.00;95.40;;;;;;5052942;28;20448;-58
2021/11/15 05:28:31;;;;;;;12.47;12.07;;;19.00;95.30;;;;;;5051473;28;20450;-58
2021/11/15 05:30:58;;;;;;;12.57;12.17;;;19.00;95.60;;;;;;5050741;28;20460;-54
2021/11/15 05:33:25;;;;;;;12.63;12.30;;;19.00;95.90;;;;;;5051344;28;20519;-61
2021/11/15 05:35:52;;;;;;;12.57;12.17;;;19.00;96.50;;;;;;5071499;28;20451;-51
2021/11/15 05:38:18;;;;;;;13.53;13.13;;;19.10;97.00;;;;;;5071514;28;20818;-57
2021/11/15 05:40:46;;;;;;;13.33;12.73;;;19.10;97.10;;;;;;5071013;28;20479;-53
2021/11/15 05:43:14;;;;;;;13.50;13.07;;;19.20;97.40;;;;;;5071362;28;20443;-56
2021/11/15 05:45:41;;;;;;;12.50;12.10;;;19.20;97.10;;;;;;5052746;28;20964;-58
2021/11/15 05:48:07;;;;;;;13.07;12.57;;;19.30;97.10;;;;;;5051235;28;20449;-57
2021/11/15 05:50:34;;;;;;;12.60;12.20;;;19.30;97.10;;;;;;5051057;28;20460;-57
2021/11/15 05:53:01;;;;;;;13.43;12.90;;;19.80;96.40;;;;;;5060483;28;20447;-55
2021/11/15 05:55:28;;;;;;;13.00;12.60;;;20.70;94.10;;;;;;5071220;28;20452;-62
2021/11/15 05:57:55;;;;;;;13.00;12.60;;;21.50;91.20;;;;;;5071354;28;20932;-58
2021/11/15 06:00:25;;;;;;;13.40;13.00;;;22.00;87.90;;;;;;5070797;28;20597;-62
2021/11/15 06:02:52;;;;;;;14.03;13.53;;;22.30;84.70;;;;;;5070815;28;20816;-61
2021/11/15 06:05:19;;;;;;;13.60;13.20;;;22.50;82.80;;;;;;5070883;28;20466;-59
2021/11/15 06:07:45;;;;;;;13.00;12.60;;;22.60;81.50;;;;;;5070990;28;20451;-61
2021/11/15 06:10:12;;;;;;;13.90;13.40;;;22.70;80.30;;;;;;5070748;28;20474;-61
2021/11/15 06:12:40;;;;;;;13.73;13.33;;;22.70;79.30;;;;;;5071244;28;20478;-61
2021/11/15 06:15:11;;;;;;;13.80;13.40;;;22.80;78.70;;;;;;5063378;28;20449;-60
2021/11/15 06:17:39;;;;;;;13.93;13.50;;;22.70;78.10;;;;;;5050999;28;20451;-53
2021/11/15 06:20:08;;;;;;;14.20;13.70;;;22.70;77.70;;;;;;5050647;28;20480;-58
2021/11/15 06:22:35;;;;;;;14.00;13.60;;;22.70;77.40;;;;;;5050908;28;20452;-61
2021/11/15 06:25:02;;;;;;;14.27;13.77;;;22.70;77.30;;;;;;5050861;28;20883;-59
2021/11/15 06:27:29;;;;;;;14.47;13.97;;;22.70;77.00;;;;;;5058603;28;20447;-54
2021/11/15 06:29:55;;;;;;;14.07;13.67;;;22.60;76.90;;;;;;5070473;28;20470;-57
2021/11/15 06:32:23;;;;;;;14.20;13.80;;;22.60;76.90;;;;;;5070788;28;20939;-58
2021/11/15 06:34:51;;;;;;;14.50;14.00;;;22.50;76.90;;;;;;5070699;28;20812;-56
2021/11/15 06:37:18;;;;;;;13.50;12.90;;;22.50;77.00;;;;;;5070746;28;20447;-59
2021/11/15 06:39:44;;;;;;;13.20;12.80;;;22.50;77.00;;;;;;5070480;28;20501;-58
2021/11/15 06:42:12;;;;;;;13.57;13.13;;;22.40;76.70;;;;;;5071982;28;20451;-62
2021/11/15 06:44:39;;;;;;;13.20;12.80;;;22.40;76.90;;;;;;5053340;28;20447;-55
2021/11/15 06:47:07;;;;;;;13.73;13.33;;;22.40;77.30;;;;;;5054292;28;20205;-56
2021/11/15 06:49:34;;;;;;;12.77;12.37;;;22.90;76.60;;;;;;5053919;28;20464;-53
2021/11/15 06:52:03;;;;;;;13.03;12.63;;;23.20;74.20;;;;;;5054221;28;20436;-53
2021/11/15 06:54:29;;;;;;;13.10;12.70;;;23.40;73.50;;;;;;5054503;28;20444;-60
2021/11/15 06:56:56;;;;;;;14.27;13.87;;;23.90;72.60;;;;;;5074137;28;20529;-54
2021/11/15 06:59:23;;;;;;;13.73;13.33;;;24.50;69.70;;;;;;5073968;28;20463;-53
2021/11/15 07:01:50;;;;;;;13.03;12.73;;;24.60;67.40;;;;;;5074022;28;20837;-60
2021/11/15 07:04:17;;;;;;;13.50;13.00;;;24.70;66.10;;;;;;5061359;28;20459;-53
2021/11/15 07:06:44;;;;;;;14.53;14.13;;;24.70;65.20;;;;;;5053995;28;20457;-57
2021/11/15 07:09:12;;;;;;;14.23;13.73;;;24.80;64.70;;;;;;5053614;28;20833;-60
2021/11/15 07:11:39;;;;;;;14.10;13.60;;;24.80;64.20;;;;;;5053859;28;20448;-59
2021/11/15 07:14:06;;;;;;;15.67;15.17;;;24.70;63.80;;;;;;5063864;28;20455;-59
2021/11/15 07:16:33;;;;;;;15.43;14.93;;;24.70;63.90;;;;;;5073884;28;20451;-59
2021/11/15 07:19:00;;;;;;;14.20;13.80;;;24.60;63.60;;;;;;5073679;28;20485;-60
2021/11/15 07:21:27;;;;;;;13.37;12.90;;;24.60;63.20;;;;;;5073688;28;20478;-56
2021/11/15 07:23:54;;;;;;;14.23;13.77;;;24.70;63.80;;;;;;5073718;28;20479;-54
2021/11/15 07:26:23;;;;;;;13.97;13.57;;;25.10;62.50;;;;;;5062635;28;20454;-54
2021/11/15 07:28:50;;;;;;;14.70;14.13;;;25.40;60.70;;;;;;5053217;28;20829;-57
2021/11/15 07:31:17;;;;;;;13.33;12.93;;;25.50;59.70;;;;;;5053403;28;20783;-58
2021/11/15 07:33:43;;;;;;;13.57;13.17;;;25.50;59.70;;;;;;5053529;28;20448;-58
2021/11/15 07:36:10;;;;;;;14.33;13.83;;;25.40;59.20;;;;;;5053415;28;20448;-56
2021/11/15 07:38:37;;;;;;;14.40;13.90;;;25.40;59.50;;;;;;5067857;28;20801;-59
2021/11/15 07:41:04;;;;;;;13.67;13.27;;;25.30;59.60;;;;;;5073127;28;20482;-59
2021/11/15 07:43:32;;;;;;;14.00;13.60;;;25.20;59.80;;;;;;5073029;28;20829;-57
2021/11/15 07:46:00;;;;;;;14.40;13.83;;;25.20;59.70;;;;;;5072783;28;20444;-57
2021/11/15 07:48:26;;;;;;;13.80;13.20;;;25.20;59.70;;;;;;5073274;28;20824;-58
2021/11/15 07:50:53;;;;;;;16.03;15.50;;;25.50;59.10;;;;;;5057318;28;20538;-59
2021/11/15 07:53:20;;;;;;;15.40;14.90;;;25.90;58.00;;;;;;5052188;28;20448;-55
2021/11/15 07:55:47;;;;;;;15.17;14.67;;;26.00;58.20;;;;;;5052779;28;20446;-50
2021/11/15 07:58:15;;;;;;;15.40;14.90;;;26.00;59.20;;;;;;5052037;28;20448;-59
2021/11/15 08:00:44;;;;;;;15.60;15.10;;;26.00;59.30;;;;;;5052680;28;20516;-54
2021/11/15 08:03:10;;;;;;;16.00;15.50;;;26.00;58.90;;;;;;5052991;28;20440;-52
2021/11/15 08:05:37;;;;;;;15.73;15.23;;;25.90;59.00;;;;;;5053027;28;20918;-52
2021/11/15 08:08:05;;;;;;;16.53;15.83;;;25.90;59.10;;;;;;5059838;28;20869;-54
2021/11/15 08:10:32;;;;;;;15.93;15.43;;;25.80;60.20;;;;;;5072532;28;20467;-50
2021/11/15 08:12:58;;;;;;;17.37;16.43;;;25.70;61.60;;;;;;5072707;28;20444;-52
2021/11/15 08:15:27;;;;;;;18.40;17.47;;;25.70;62.90;;;;;;5072614;28;20455;-52
2021/11/15 08:17:59;;;;;;;17.80;16.80;;;25.70;64.70;;;;;;5072646;28;20489;-53
2021/11/15 08:20:28;;;;;;;20.77;19.40;;;25.90;65.60;;;;;;5063015;28;20512;-54
2021/11/15 08:22:57;;;;;;;20.17;18.60;;;26.10;71.30;;;;;;5052615;28;20452;-52
2021/11/15 08:26:09;;;;;;;18.93;17.50;;;26.30;73.40;;;;;;5052575;28;20456;-49
2021/11/15 08:28:36;;;;;;;17.13;16.17;;;26.40;74.60;;;;;;5052339;28;20454;-52
2021/11/15 08:31:06;;;;;;;19.17;17.73;;;26.30;73.20;;;;;;5065018;28;20804;-49
2021/11/15 08:33:35;;;;;;;19.17;18.10;;;26.30;73.30;;;;;;5072460;28;20855;-53
2021/11/15 08:36:02;;;;;;;18.00;17.00;;;26.20;73.40;;;;;;5072427;28;20454;-53
2021/11/15 08:38:49;;;;;;;18.13;16.87;;;26.00;70.80;;;;;;5072405;28;20443;-51
2021/11/15 08:41:19;;;;;;;18.23;17.23;;;26.10;67.70;;;;;;5072155;28;20486;-56
2021/11/15 08:43:47;;;;;;;17.60;16.80;;;26.30;67.80;;;;;;5032338;28;20449;-51
2021/11/15 08:46:16;;;;;;;19.00;17.70;;;26.40;68.00;;;;;;5032143;28;20455;-49
2021/11/15 08:48:45;;;;;;;18.60;17.43;;;26.50;68.80;;;;;;5048364;28;20817;-51
2021/11/15 08:51:14;;;;;;;19.13;18.07;;;26.50;68.20;;;;;;5052041;28;20447;-49
2021/11/15 08:53:41;;;;;;;18.60;17.53;;;26.50;68.40;;;;;;5055415;28;20468;-52
2021/11/15 08:56:08;;;;;;;16.90;16.10;;;26.40;68.40;;;;;;5072213;28;20500;-49
2021/11/15 08:58:36;;;;;;;18.07;17.00;;;26.30;68.40;;;;;;5071516;28;20447;-53
2021/11/15 09:01:03;;;;;;;18.47;17.30;;;26.30;68.50;;;;;;5071681;28;20844;-49
2021/11/15 09:03:30;;;;;;;17.97;16.73;;;26.20;68.50;;;;;;5052432;28;20460;-50
2021/11/15 09:05:58;;;;;;;17.90;16.80;;;26.10;68.80;;;;;;5051596;28;20864;-56
2021/11/15 09:08:25;;;;;;;19.37;18.20;;;26.10;68.40;;;;;;5053076;28;20872;-53
2021/11/15 09:10:52;;;;;;;17.17;16.40;;;26.40;67.70;;;;;;5051584;28;20469;-52
2021/11/15 09:13:19;;;;;;;18.50;17.27;;;26.80;65.30;;;;;;5051724;28;20448;-53
2021/11/15 09:15:46;;;;;;;18.43;17.07;;;27.00;63.70;;;;;;5051663;28;20457;-56
2021/11/15 09:18:12;;;;;;;18.57;17.57;;;27.00;62.60;;;;;;5051980;28;20444;-57
2021/11/15 09:20:39;;;;;;;18.47;17.60;;;27.10;61.80;;;;;;5051358;28;20464;-57
2021/11/15 09:23:07;;;;;;;19.83;18.83;;;27.10;61.10;;;;;;5051587;28;20439;-55
2021/11/15 09:25:35;;;;;;;19.80;18.60;;;27.00;60.90;;;;;;5051539;28;20795;-55
2021/11/15 09:28:03;;;;;;;17.60;16.47;;;27.00;60.60;;;;;;5051508;28;20471;-57
2021/11/15 09:30:30;;;;;;;17.30;16.60;;;26.90;60.40;;;;;;5051411;28;20833;-57
2021/11/15 09:32:56;;;;;;;18.40;17.57;;;26.80;60.20;;;;;;5051595;28;20825;-58
2021/11/15 09:35:24;;;;;;;16.83;16.10;;;26.80;60.20;;;;;;5051458;28;20448;-53
2021/11/15 09:37:50;;;;;;;18.30;17.60;;;26.70;60.10;;;;;;5051617;28;20444;-58
2021/11/15 09:40:19;;;;;;;17.83;17.13;;;26.60;60.30;;;;;;5051419;28;20472;-57
2021/11/15 09:42:47;;;;;;;18.23;17.17;;;26.50;60.40;;;;;;5051324;28;20487;-57
2021/11/15 09:45:14;;;;;;;18.17;17.13;;;26.90;59.90;;;;;;5051486;28;20448;-56
2021/11/15 09:47:42;;;;;;;19.60;18.77;;;27.30;58.90;;;;;;5051423;28;20809;-56
2021/11/15 09:50:12;;;;;;;17.97;17.03;;;27.50;57.70;;;;;;5050984;28;20471;-56
2021/11/15 09:52:39;;;;;;;17.13;16.10;;;27.50;57.40;;;;;;5051415;28;20809;-56
2021/11/15 09:55:07;;;;;;;16.40;15.80;;;27.40;57.20;;;;;;5051329;28;20841;-56
2021/11/15 09:57:38;;;;;;;18.10;17.40;;;27.40;57.30;;;;;;5051395;28;20444;-53
2021/11/15 10:00:08;;;;;;;18.03;17.23;;;27.20;57.20;;;;;;5051122;28;20471;-59
2021/11/15 10:02:37;;;;;;;18.13;17.30;;;27.20;57.30;;;;;;5051321;28;20480;-55
2021/11/15 10:05:07;;;;;;;17.53;16.73;;;27.40;57.30;;;;;;5051426;28;20448;-58
2021/11/15 10:07:40;;;;;;;18.57;17.77;;;27.70;56.50;;;;;;5051265;28;20455;-55
2021/11/15 10:10:27;;;;;;;17.40;16.60;;;27.80;55.80;;;;;;5050796;28;21012;-57
2021/11/15 10:13:15;;;;;;;16.70;15.90;;;27.80;55.60;;;;;;5051353;28;20440;-53
2021/11/15 10:15:58;;;;;;;17.73;16.63;;;27.80;55.50;;;;;;5051125;28;20483;-54
2021/11/15 10:18:38;;;;;;;16.33;15.63;;;27.70;55.50;;;;;;5054615;28;20470;-54
2021/11/15 10:21:08;;;;;;;16.60;15.90;;;27.50;55.50;;;;;;5054989;28;20484;-57
2021/11/15 10:23:40;;;;;;;18.30;17.60;;;27.40;55.60;;;;;;5055045;28;20470;-56
2021/11/15 10:26:15;;;;;;;16.87;16.17;;;27.30;55.80;;;;;;5062148;28;20447;-54
2021/11/15 10:28:44;;;;;;;16.83;16.23;;;27.20;56.10;;;;;;5069721;28;20455;-53
2021/11/15 10:31:29;;;;;;;17.93;17.33;;;27.20;57.20;;;;;;5074591;28;20447;-51
2021/11/15 10:33:57;;;;;;;18.00;17.20;;;27.40;56.60;;;;;;5074705;28;20446;-50
2021/11/15 10:36:43;;;;;;;24.70;23.30;;;27.30;56.80;;;;;;5062317;28;20440;-58
2021/11/15 10:39:10;;;;;;;23.60;22.20;;;25.10;47.70;;;;;;5054883;28;20459;-57
2021/11/15 10:41:39;;;;;;;20.83;19.53;;;23.70;50.80;;;;;;5055508;28;20483;-62
2021/11/15 10:44:10;;;;;;;21.40;20.20;;;22.70;53.10;;;;;;5074631;28;20504;-51
2021/11/15 10:46:39;;;;;;;25.07;22.43;;;21.90;52.80;;;;;;5056862;28;20452;-53
2021/11/15 10:49:08;;;;;;;22.83;21.43;;;21.30;55.60;;;;;;5054093;28;20464;-51
2021/11/15 10:51:52;;;;;;;22.43;21.13;;;21.00;55.50;;;;;;5054339;28;20779;-54
2021/11/15 10:54:42;;;;;;;22.20;20.90;;;20.50;58.60;;;;;;5054647;28;20841;-53
2021/11/15 10:57:27;;;;;;;24.10;22.70;;;20.10;56.90;;;;;;5034542;28;20503;-51
2021/11/15 11:00:18;;;;;;;22.77;21.47;;;20.00;57.40;;;;;;5034327;28;20492;-59
2021/11/15 11:02:46;;;;;;;22.23;20.63;;;19.90;59.40;;;;;;5034169;28;20480;-53
2021/11/15 11:05:16;;;;;;;22.40;20.73;;;19.90;59.60;;;;;;5043468;28;20922;-51
2021/11/15 11:07:45;;;;;;;20.80;19.60;;;19.50;58.50;;;;;;5074021;28;20451;-55
2021/11/15 11:10:15;;;;;;;23.13;21.63;;;19.40;59.60;;;;;;5074252;28;20478;-56
2021/11/15 11:12:56;;;;;;;22.13;20.93;;;19.40;64.40;;;;;;5074026;28;20489;-54
2021/11/15 11:15:33;;;;;;;22.73;21.23;;;19.20;61.30;;;;;;5065921;28;20480;-60
2021/11/15 11:18:12;;;;;;;20.67;19.47;;;19.40;61.70;;;;;;5053874;28;20457;-51
2021/11/15 11:24:34;;;;;;;20.30;19.10;;;19.60;63.50;;;;;;5053855;28;20423;-52
2021/11/15 11:27:04;;;;;;;21.33;20.07;;;19.70;65.60;;;;;;5050352;28;20448;-51
2021/11/15 11:29:34;;;;;;;20.40;19.30;;;19.80;63.30;;;;;;5052351;28;20467;-61
2021/11/15 11:32:07;;;;;;;19.27;18.30;;;19.20;61.60;;;;;;5053918;28;20875;-54
2021/11/15 11:34:34;;;;;;;20.10;19.00;;;19.10;64.50;;;;;;5050190;28;20440;-50
2021/11/15 11:37:04;;;;;;;19.17;18.27;;;19.20;64.40;;;;;;5053249;28;21011;-53
2021/11/15 11:39:33;;;;;;;21.83;20.43;;;19.10;66.00;;;;;;5053680;28;20464;-61
2021/11/15 11:42:00;;;;;;;20.70;19.43;;;19.10;64.30;;;;;;5053425;28;20480;-57
2021/11/15 11:44:29;;;;;;;19.93;18.80;;;18.60;62.50;;;;;;5053308;28;20456;-51
2021/11/15 11:46:56;;;;;;;21.60;20.33;;;18.60;66.80;;;;;;5066049;28;20889;-62
2021/11/15 11:49:26;;;;;;;22.17;20.77;;;18.80;64.90;;;;;;5073030;28;20470;-62
2021/11/15 11:51:57;;;;;;;20.60;19.40;;;18.40;64.80;;;;;;5073440;28;20448;-61
2021/11/15 11:54:27;;;;;;;21.23;19.93;;;18.50;65.90;;;;;;5067540;28;20452;-56
2021/11/15 11:57:03;;;;;;;21.17;19.87;;;18.50;64.70;;;;;;5052612;28;20479;-61
2021/11/15 11:59:34;;;;;;;18.93;17.80;;;18.50;66.20;;;;;;5053000;28;20470;-61
2021/11/15 12:02:03;;;;;;;21.77;20.23;;;18.20;65.50;;;;;;5054225;28;20843;-60
2021/11/15 12:04:32;;;;;;;19.13;17.93;;;18.40;65.00;;;;;;5073078;28;20458;-62
2021/11/15 12:06:59;;;;;;;20.60;19.40;;;18.40;66.90;;;;;;5073267;28;20826;-62
2021/11/15 12:09:45;;;;;;;20.20;18.93;;;18.10;64.90;;;;;;5072517;28;20487;-63
2021/11/15 12:12:11;;;;;;;19.70;18.60;;;18.30;69.60;;;;;;5070275;28;20996;-59
2021/11/15 12:14:41;;;;;;;19.93;18.73;;;18.20;67.60;;;;;;5052901;28;20822;-49
2021/11/15 12:17:09;;;;;;;21.93;20.53;;;18.10;66.70;;;;;;5052815;28;20452;-54
2021/11/15 12:20:08;;;;;;;19.67;18.50;;;17.90;66.20;;;;;;5052479;28;20556;-59
2021/11/15 12:22:47;;;;;;;19.77;18.30;;;18.30;66.70;;;;;;4991565;28;20521;-52
2021/11/15 12:25:16;;;;;;;20.33;19.03;;;18.30;66.50;;;;;;5043734;28;20479;-49
2021/11/15 12:27:46;;;;;;;20.50;18.83;;;18.40;66.80;;;;;;5052387;28;20464;-62
2021/11/15 12:30:15;;;;;;;20.70;19.50;;;18.50;66.50;;;;;;5052139;28;20474;-51
2021/11/15 12:32:43;;;;;;;19.97;18.73;;;18.00;66.90;;;;;;5052767;28;20462;-60
2021/11/15 12:35:11;;;;;;;19.70;18.50;;;17.80;65.40;;;;;;5052508;28;20447;-52
2021/11/15 12:37:41;;;;;;;19.90;18.70;;;18.00;67.00;;;;;;5052149;28;20941;-50
2021/11/15 12:40:10;;;;;;;19.70;18.60;;;18.00;67.90;;;;;;5051506;28;20468;-52